KGWO/GWO METAR and TAF weather

Enter ICAO airport designator
Station Type Date Time Source
KGWO METAR 2019/11/21 02:53 UTC NOAA

KGWO 210253Z AUTO 04003KT 10SM CLR 11/06 A3017 RMK AO2 SLP215 T01110056 53016


Station Type Date Time Source
KGWO Decoded METAR 2019/11/21 02:53 UTC NOAA

GREENWOOD-LEFLORE AIRPORT, MS, United States (KGWO) 33-30N 090-05W 44M
Nov 20, 2019 - 09:53 PM EST / 2019.11.21 0253 UTC
Wind: from the NE (040 degrees) at 3 MPH (3 KT):0
Visibility: 10 mile(s):0
Sky conditions: clear
Temperature: 52.0 F (11.1 C)
Dew Point: 42.1 F (5.6 C)
Relative Humidity: 68%
Pressure (altimeter): 30.17 in. Hg (1021 hPa)
Pressure tendency: 0.05 inches (1.6 hPa) higher than three hours ago
ob: KGWO 210253Z AUTO 04003KT 10SM CLR 11/06 A3017 RMK AO2 SLP215 T01110056 53016
cycle: 3

Station Type Date Time Source
KGWO TAF 2019/11/20 18:36 UTC NOAA

TAF KGWO 201733Z 2018/2118 15006KT P6SM SCT100 BKN250
FM211500 18012KT P6SM OVC100

Example: see airport list